sensor_id;sensor_type;location;lat;lon;timestamp;pressure;altitude;pressure_sealevel;temperature;humidity
73974;BME280;62336;-26.094;27.994;2022-08-14T00:01:29;84377.53;;;28.56;5.78
73974;BME280;62336;-26.094;27.994;2022-08-14T00:03:53;84364.70;;;28.27;6.00
73974;BME280;62336;-26.094;27.994;2022-08-14T00:06:18;84363.40;;;27.87;5.94
73974;BME280;62336;-26.094;27.994;2022-08-14T00:08:43;84362.17;;;28.27;6.09
73974;BME280;62336;-26.094;27.994;2022-08-14T00:11:08;84346.83;;;27.53;6.15
73974;BME280;62336;-26.094;27.994;2022-08-14T00:13:33;84346.72;;;28.03;6.15
73974;BME280;62336;-26.094;27.994;2022-08-14T00:15:59;84357.24;;;27.49;6.35
73974;BME280;62336;-26.094;27.994;2022-08-14T00:18:26;84358.32;;;27.57;6.27
73974;BME280;62336;-26.094;27.994;2022-08-14T00:20:50;84364.73;;;27.78;6.23
73974;BME280;62336;-26.094;27.994;2022-08-14T00:23:15;84346.08;;;27.74;6.29
73974;BME280;62336;-26.094;27.994;2022-08-14T00:25:39;84357.20;;;27.75;6.29
73974;BME280;62336;-26.094;27.994;2022-08-14T00:28:06;84355.81;;;28.13;6.13
73974;BME280;62336;-26.094;27.994;2022-08-14T00:30:29;84351.15;;;27.62;6.35
73974;BME280;62336;-26.094;27.994;2022-08-14T00:32:54;84345.46;;;27.66;6.43
73974;BME280;62336;-26.094;27.994;2022-08-14T00:35:19;84351.74;;;27.49;6.41
73974;BME280;62336;-26.094;27.994;2022-08-14T00:37:45;84349.70;;;27.77;6.30
73974;BME280;62336;-26.094;27.994;2022-08-14T00:40:14;84361.67;;;27.36;6.52
73974;BME280;62336;-26.094;27.994;2022-08-14T00:42:35;84359.94;;;27.70;6.47
73974;BME280;62336;-26.094;27.994;2022-08-14T00:44:59;84366.21;;;27.39;6.55
73974;BME280;62336;-26.094;27.994;2022-08-14T00:47:25;84367.72;;;27.13;6.59
73974;BME280;62336;-26.094;27.994;2022-08-14T00:49:51;84363.43;;;27.17;6.55
73974;BME280;62336;-26.094;27.994;2022-08-14T00:52:16;84362.86;;;27.67;6.47
73974;BME280;62336;-26.094;27.994;2022-08-14T00:54:41;84365.90;;;27.81;6.56
73974;BME280;62336;-26.094;27.994;2022-08-14T00:57:06;84357.91;;;26.85;6.79
73974;BME280;62336;-26.094;27.994;2022-08-14T00:59:31;84359.88;;;27.14;6.72
73974;BME280;62336;-26.094;27.994;2022-08-14T01:01:58;84362.38;;;27.14;6.70
73974;BME280;62336;-26.094;27.994;2022-08-14T01:04:23;84360.71;;;27.06;6.69
73974;BME280;62336;-26.094;27.994;2022-08-14T01:06:48;84361.34;;;26.75;6.89
73974;BME280;62336;-26.094;27.994;2022-08-14T01:09:11;84351.52;;;26.80;6.99
73974;BME280;62336;-26.094;27.994;2022-08-14T01:11:38;84353.76;;;26.55;7.03
73974;BME280;62336;-26.094;27.994;2022-08-14T01:14:03;84356.99;;;26.65;7.12
73974;BME280;62336;-26.094;27.994;2022-08-14T01:16:28;84361.55;;;26.72;6.95
73974;BME280;62336;-26.094;27.994;2022-08-14T01:18:52;84358.03;;;26.51;7.04
73974;BME280;62336;-26.094;27.994;2022-08-14T01:21:22;84357.26;;;26.88;7.14
73974;BME280;62336;-26.094;27.994;2022-08-14T01:23:44;84358.52;;;26.47;7.21
73974;BME280;62336;-26.094;27.994;2022-08-14T01:26:08;84359.36;;;26.26;7.30
73974;BME280;62336;-26.094;27.994;2022-08-14T01:28:34;84364.03;;;26.53;7.28
73974;BME280;62336;-26.094;27.994;2022-08-14T01:30:59;84356.28;;;27.02;7.14
73974;BME280;62336;-26.094;27.994;2022-08-14T01:33:24;84357.53;;;26.66;7.18
73974;BME280;62336;-26.094;27.994;2022-08-14T01:35:48;84360.26;;;26.57;7.25
73974;BME280;62336;-26.094;27.994;2022-08-14T01:38:13;84364.87;;;26.62;7.22
73974;BME280;62336;-26.094;27.994;2022-08-14T01:40:38;84364.03;;;26.59;7.28
73974;BME280;62336;-26.094;27.994;2022-08-14T01:43:06;84365.06;;;26.83;7.16
73974;BME280;62336;-26.094;27.994;2022-08-14T01:45:28;84367.99;;;27.17;7.36
73974;BME280;62336;-26.094;27.994;2022-08-14T01:47:53;84364.81;;;26.93;7.14
73974;BME280;62336;-26.094;27.994;2022-08-14T01:50:18;84365.77;;;26.72;7.17
73974;BME280;62336;-26.094;27.994;2022-08-14T01:52:43;84359.85;;;26.85;7.23
73974;BME280;62336;-26.094;27.994;2022-08-14T01:55:09;84364.42;;;26.81;7.29
73974;BME280;62336;-26.094;27.994;2022-08-14T01:57:35;84360.74;;;27.31;7.05
73974;BME280;62336;-26.094;27.994;2022-08-14T01:59:58;84357.89;;;26.98;7.16
73974;BME280;62336;-26.094;27.994;2022-08-14T02:02:24;84352.72;;;26.85;7.23
73974;BME280;62336;-26.094;27.994;2022-08-14T02:04:49;84348.04;;;27.16;7.19
73974;BME280;62336;-26.094;27.994;2022-08-14T02:07:14;84351.56;;;26.85;7.26
73974;BME280;62336;-26.094;27.994;2022-08-14T02:09:42;84347.41;;;27.00;7.18
73974;BME280;62336;-26.094;27.994;2022-08-14T02:12:06;84346.18;;;26.80;7.29
73974;BME280;62336;-26.094;27.994;2022-08-14T02:14:29;84351.50;;;27.11;7.21
73974;BME280;62336;-26.094;27.994;2022-08-14T02:16:55;84353.28;;;26.79;7.38
73974;BME280;62336;-26.094;27.994;2022-08-14T02:19:22;84358.38;;;26.61;7.49
73974;BME280;62336;-26.094;27.994;2022-08-14T02:21:47;84364.67;;;26.50;7.64
73974;BME280;62336;-26.094;27.994;2022-08-14T02:24:11;84363.97;;;26.71;7.59
73974;BME280;62336;-26.094;27.994;2022-08-14T02:26:39;84363.80;;;26.09;7.71
73974;BME280;62336;-26.094;27.994;2022-08-14T02:29:08;84367.81;;;26.50;7.70
73974;BME280;62336;-26.094;27.994;2022-08-14T02:31:26;84370.25;;;26.53;7.72
73974;BME280;62336;-26.094;27.994;2022-08-14T02:33:51;84373.13;;;26.40;7.75
73974;BME280;62336;-26.094;27.994;2022-08-14T02:36:15;84371.23;;;26.79;7.92
73974;BME280;62336;-26.094;27.994;2022-08-14T02:38:41;84375.45;;;26.59;7.88
73974;BME280;62336;-26.094;27.994;2022-08-14T02:41:12;84374.77;;;26.47;7.97
73974;BME280;62336;-26.094;27.994;2022-08-14T02:43:41;84374.09;;;26.28;8.01
73974;BME280;62336;-26.094;27.994;2022-08-14T02:45:56;84375.70;;;25.95;8.06
73974;BME280;62336;-26.094;27.994;2022-08-14T02:48:21;84377.20;;;26.05;8.19
73974;BME280;62336;-26.094;27.994;2022-08-14T02:50:46;84371.96;;;25.98;8.17
73974;BME280;62336;-26.094;27.994;2022-08-14T02:53:11;84369.42;;;26.15;8.38
73974;BME280;62336;-26.094;27.994;2022-08-14T02:55:36;84369.63;;;25.89;8.23
73974;BME280;62336;-26.094;27.994;2022-08-14T02:58:02;84370.31;;;25.71;8.39
73974;BME280;62336;-26.094;27.994;2022-08-14T03:00:27;84370.77;;;25.73;8.54
73974;BME280;62336;-26.094;27.994;2022-08-14T03:02:52;84368.28;;;26.37;8.48
73974;BME280;62336;-26.094;27.994;2022-08-14T03:05:17;84377.10;;;25.68;8.51
73974;BME280;62336;-26.094;27.994;2022-08-14T03:07:42;84376.64;;;25.41;9.00
73974;BME280;62336;-26.094;27.994;2022-08-14T03:10:08;84377.59;;;25.86;8.99
73974;BME280;62336;-26.094;27.994;2022-08-14T03:12:32;84375.26;;;25.61;9.08
73974;BME280;62336;-26.094;27.994;2022-08-14T03:14:57;84372.52;;;25.92;9.07
73974;BME280;62336;-26.094;27.994;2022-08-14T03:17:23;84377.84;;;25.28;9.24
73974;BME280;62336;-26.094;27.994;2022-08-14T03:19:47;84377.19;;;25.22;9.15
73974;BME280;62336;-26.094;27.994;2022-08-14T03:22:13;84377.88;;;25.63;9.16
73974;BME280;62336;-26.094;27.994;2022-08-14T03:24:39;84379.95;;;25.93;8.95
73974;BME280;62336;-26.094;27.994;2022-08-14T03:27:04;84381.19;;;25.67;8.96
73974;BME280;62336;-26.094;27.994;2022-08-14T03:29:28;84385.74;;;25.54;9.01
73974;BME280;62336;-26.094;27.994;2022-08-14T03:31:54;84384.24;;;25.58;9.37
73974;BME280;62336;-26.094;27.994;2022-08-14T03:34:19;84381.65;;;25.33;9.19
73974;BME280;62336;-26.094;27.994;2022-08-14T03:36:44;84384.68;;;25.50;9.39
73974;BME280;62336;-26.094;27.994;2022-08-14T03:39:11;84382.99;;;25.64;9.25
73974;BME280;62336;-26.094;27.994;2022-08-14T03:41:35;84380.46;;;25.43;9.56
73974;BME280;62336;-26.094;27.994;2022-08-14T03:44:02;84385.17;;;24.90;9.61
73974;BME280;62336;-26.094;27.994;2022-08-14T03:46:28;84381.01;;;25.16;9.46
73974;BME280;62336;-26.094;27.994;2022-08-14T03:48:51;84387.75;;;24.92;9.50
73974;BME280;62336;-26.094;27.994;2022-08-14T03:51:16;84390.56;;;25.13;9.73
73974;BME280;62336;-26.094;27.994;2022-08-14T03:53:43;84392.69;;;25.38;9.82
73974;BME280;62336;-26.094;27.994;2022-08-14T03:56:08;84401.13;;;25.48;10.06
73974;BME280;62336;-26.094;27.994;2022-08-14T03:58:32;84404.99;;;25.01;10.16
73974;BME280;62336;-26.094;27.994;2022-08-14T04:00:57;84409.95;;;25.25;10.30
73974;BME280;62336;-26.094;27.994;2022-08-14T04:03:22;84415.81;;;25.02;10.54
73974;BME280;62336;-26.094;27.994;2022-08-14T04:05:47;84421.82;;;24.57;10.85
73974;BME280;62336;-26.094;27.994;2022-08-14T04:08:12;84424.50;;;25.31;10.81
73974;BME280;62336;-26.094;27.994;2022-08-14T04:10:37;84426.19;;;24.73;11.04
73974;BME280;62336;-26.094;27.994;2022-08-14T04:13:03;84428.03;;;24.75;11.12
73974;BME280;62336;-26.094;27.994;2022-08-14T04:15:27;84432.85;;;24.72;11.19
73974;BME280;62336;-26.094;27.994;2022-08-14T04:17:52;84438.42;;;24.84;11.13
73974;BME280;62336;-26.094;27.994;2022-08-14T04:20:17;84441.18;;;24.51;11.29
73974;BME280;62336;-26.094;27.994;2022-08-14T04:22:43;84438.89;;;24.13;11.40
73974;BME280;62336;-26.094;27.994;2022-08-14T04:25:08;84438.97;;;24.45;11.25
73974;BME280;62336;-26.094;27.994;2022-08-14T04:27:33;84437.29;;;24.25;11.23
73974;BME280;62336;-26.094;27.994;2022-08-14T04:29:58;84433.39;;;24.47;11.32
73974;BME280;62336;-26.094;27.994;2022-08-14T04:32:24;84432.35;;;24.34;11.18
73974;BME280;62336;-26.094;27.994;2022-08-14T04:34:48;84431.33;;;24.31;11.19
73974;BME280;62336;-26.094;27.994;2022-08-14T04:37:13;84435.79;;;24.70;11.20
73974;BME280;62336;-26.094;27.994;2022-08-14T04:39:38;84440.42;;;24.24;11.32
73974;BME280;62336;-26.094;27.994;2022-08-14T04:42:04;84447.85;;;24.11;11.44
73974;BME280;62336;-26.094;27.994;2022-08-14T04:44:29;84452.05;;;24.20;11.58
73974;BME280;62336;-26.094;27.994;2022-08-14T04:46:54;84460.45;;;24.42;11.48
73974;BME280;62336;-26.094;27.994;2022-08-14T04:49:19;84467.86;;;24.33;11.39
73974;BME280;62336;-26.094;27.994;2022-08-14T04:51:44;84467.76;;;24.59;11.39
73974;BME280;62336;-26.094;27.994;2022-08-14T04:54:09;84470.84;;;24.35;11.47
73974;BME280;62336;-26.094;27.994;2022-08-14T04:56:34;84467.29;;;24.32;11.60
73974;BME280;62336;-26.094;27.994;2022-08-14T04:59:02;84472.05;;;24.78;11.52
73974;BME280;62336;-26.094;27.994;2022-08-14T05:01:26;84474.65;;;24.13;11.71
73974;BME280;62336;-26.094;27.994;2022-08-14T05:03:49;84470.84;;;24.28;11.52
73974;BME280;62336;-26.094;27.994;2022-08-14T05:06:14;84470.71;;;24.65;11.58
73974;BME280;62336;-26.094;27.994;2022-08-14T05:08:39;84470.57;;;24.47;11.66
73974;BME280;62336;-26.094;27.994;2022-08-14T05:11:06;84482.15;;;24.05;11.89
73974;BME280;62336;-26.094;27.994;2022-08-14T05:13:30;84487.24;;;24.11;11.78
73974;BME280;62336;-26.094;27.994;2022-08-14T05:15:56;84485.45;;;24.37;11.85
73974;BME280;62336;-26.094;27.994;2022-08-14T05:18:21;84492.88;;;23.96;11.80
73974;BME280;62336;-26.094;27.994;2022-08-14T05:20:46;84494.10;;;24.04;11.81
73974;BME280;62336;-26.094;27.994;2022-08-14T05:23:10;84492.48;;;24.22;11.74
73974;BME280;62336;-26.094;27.994;2022-08-14T05:25:36;84495.81;;;23.81;12.02
73974;BME280;62336;-26.094;27.994;2022-08-14T05:28:06;84501.07;;;23.28;12.06
73974;BME280;62336;-26.094;27.994;2022-08-14T05:30:27;84498.49;;;23.10;12.14
73974;BME280;62336;-26.094;27.994;2022-08-14T05:32:51;84499.97;;;23.33;12.22
73974;BME280;62336;-26.094;27.994;2022-08-14T05:35:17;84506.52;;;23.19;12.28
73974;BME280;62336;-26.094;27.994;2022-08-14T05:37:41;84508.31;;;23.39;12.26
73974;BME280;62336;-26.094;27.994;2022-08-14T05:40:07;84507.90;;;23.03;12.53
73974;BME280;62336;-26.094;27.994;2022-08-14T05:42:32;84513.38;;;23.14;12.47
73974;BME280;62336;-26.094;27.994;2022-08-14T05:44:56;84520.58;;;22.71;12.47
73974;BME280;62336;-26.094;27.994;2022-08-14T05:47:22;84521.17;;;23.01;12.49
73974;BME280;62336;-26.094;27.994;2022-08-14T05:49:47;84522.49;;;23.11;12.58
73974;BME280;62336;-26.094;27.994;2022-08-14T05:52:12;84528.15;;;23.33;12.25
73974;BME280;62336;-26.094;27.994;2022-08-14T05:54:37;84529.58;;;23.23;12.26
73974;BME280;62336;-26.094;27.994;2022-08-14T05:57:03;84527.51;;;23.09;12.18
73974;BME280;62336;-26.094;27.994;2022-08-14T05:59:27;84526.95;;;23.08;12.18
73974;BME280;62336;-26.094;27.994;2022-08-14T06:01:53;84523.84;;;23.87;12.10
73974;BME280;62336;-26.094;27.994;2022-08-14T06:04:18;84530.28;;;23.69;12.16
73974;BME280;62336;-26.094;27.994;2022-08-14T06:06:43;84533.10;;;23.55;12.03
73974;BME280;62336;-26.094;27.994;2022-08-14T06:09:08;84533.56;;;23.59;11.93
73974;BME280;62336;-26.094;27.994;2022-08-14T06:11:34;84539.40;;;23.65;12.02
73974;BME280;62336;-26.094;27.994;2022-08-14T06:13:59;84547.07;;;23.77;12.05
73974;BME280;62336;-26.094;27.994;2022-08-14T06:16:24;84551.83;;;23.60;12.12
73974;BME280;62336;-26.094;27.994;2022-08-14T06:18:49;84557.79;;;23.97;12.00
73974;BME280;62336;-26.094;27.994;2022-08-14T06:21:14;84555.87;;;24.00;12.04
73974;BME280;62336;-26.094;27.994;2022-08-14T06:23:39;84560.00;;;23.88;12.02
73974;BME280;62336;-26.094;27.994;2022-08-14T06:26:04;84553.96;;;23.90;11.99
73974;BME280;62336;-26.094;27.994;2022-08-14T06:28:29;84550.96;;;24.00;12.03
73974;BME280;62336;-26.094;27.994;2022-08-14T06:30:55;84553.86;;;24.45;11.85
73974;BME280;62336;-26.094;27.994;2022-08-14T06:33:21;84553.42;;;24.38;11.98
73974;BME280;62336;-26.094;27.994;2022-08-14T06:35:46;84554.19;;;24.23;11.99
73974;BME280;62336;-26.094;27.994;2022-08-14T06:38:14;84556.00;;;24.71;11.79
73974;BME280;62336;-26.094;27.994;2022-08-14T06:40:37;84555.94;;;24.56;11.62
73974;BME280;62336;-26.094;27.994;2022-08-14T06:43:01;84563.89;;;25.09;11.58
73974;BME280;62336;-26.094;27.994;2022-08-14T06:45:25;84566.56;;;25.36;11.37
73974;BME280;62336;-26.094;27.994;2022-08-14T06:47:51;84569.97;;;25.39;11.47
73974;BME280;62336;-26.094;27.994;2022-08-14T06:50:18;84571.32;;;25.38;11.56
73974;BME280;62336;-26.094;27.994;2022-08-14T06:52:42;84572.52;;;24.81;11.42
73974;BME280;62336;-26.094;27.994;2022-08-14T06:55:09;84571.91;;;25.18;11.52
73974;BME280;62336;-26.094;27.994;2022-08-14T06:57:35;84578.48;;;25.42;11.47
73974;BME280;62336;-26.094;27.994;2022-08-14T06:59:57;84582.54;;;25.40;11.43
73974;BME280;62336;-26.094;27.994;2022-08-14T07:02:22;84587.35;;;25.36;11.55
73974;BME280;62336;-26.094;27.994;2022-08-14T07:04:47;84582.48;;;25.90;11.52
73974;BME280;62336;-26.094;27.994;2022-08-14T07:07:12;84585.41;;;26.15;11.14
73974;BME280;62336;-26.094;27.994;2022-08-14T07:09:37;84584.99;;;25.99;11.23
73974;BME280;62336;-26.094;27.994;2022-08-14T07:12:03;84587.38;;;25.94;11.13
73974;BME280;62336;-26.094;27.994;2022-08-14T07:14:27;84590.88;;;26.03;11.00
73974;BME280;62336;-26.094;27.994;2022-08-14T07:16:53;84600.30;;;26.15;10.65
73974;BME280;62336;-26.094;27.994;2022-08-14T07:19:18;84599.36;;;26.14;10.63
73974;BME280;62336;-26.094;27.994;2022-08-14T07:21:43;84597.67;;;26.17;10.45
73974;BME280;62336;-26.094;27.994;2022-08-14T07:24:08;84586.59;;;26.36;10.41
73974;BME280;62336;-26.094;27.994;2022-08-14T07:26:33;84587.07;;;26.54;10.36
73974;BME280;62336;-26.094;27.994;2022-08-14T07:28:59;84595.07;;;26.43;10.48
73974;BME280;62336;-26.094;27.994;2022-08-14T07:31:25;84586.36;;;26.73;10.03
73974;BME280;62336;-26.094;27.994;2022-08-14T07:33:49;84591.25;;;26.72;10.27
73974;BME280;62336;-26.094;27.994;2022-08-14T07:36:15;84589.13;;;26.38;10.10
73974;BME280;62336;-26.094;27.994;2022-08-14T07:38:40;84597.89;;;26.55;10.44
73974;BME280;62336;-26.094;27.994;2022-08-14T07:41:05;84600.85;;;26.75;10.14
73974;BME280;62336;-26.094;27.994;2022-08-14T07:43:29;84599.69;;;26.50;10.34
73974;BME280;62336;-26.094;27.994;2022-08-14T07:46:00;84593.65;;;27.11;10.25
73974;BME280;62336;-26.094;27.994;2022-08-14T07:48:20;84600.13;;;27.36;9.88
73974;BME280;62336;-26.094;27.994;2022-08-14T07:50:45;84599.04;;;27.43;9.74
73974;BME280;62336;-26.094;27.994;2022-08-14T07:53:11;84595.50;;;27.78;9.36
73974;BME280;62336;-26.094;27.994;2022-08-14T07:55:35;84606.17;;;27.98;9.89
73974;BME280;62336;-26.094;27.994;2022-08-14T07:58:00;84610.74;;;28.09;9.17
73974;BME280;62336;-26.094;27.994;2022-08-14T08:00:26;84607.93;;;27.77;9.51
73974;BME280;62336;-26.094;27.994;2022-08-14T08:02:52;84608.56;;;28.12;9.51
73974;BME280;62336;-26.094;27.994;2022-08-14T08:05:15;84615.06;;;28.12;9.05
73974;BME280;62336;-26.094;27.994;2022-08-14T08:07:42;84606.20;;;28.31;9.24
73974;BME280;62336;-26.094;27.994;2022-08-14T08:10:08;84603.20;;;28.27;8.88
73974;BME280;62336;-26.094;27.994;2022-08-14T08:12:30;84603.62;;;28.01;8.79
73974;BME280;62336;-26.094;27.994;2022-08-14T08:14:56;84603.11;;;28.71;8.46
73974;BME280;62336;-26.094;27.994;2022-08-14T08:17:22;84614.23;;;28.40;8.61
73974;BME280;62336;-26.094;27.994;2022-08-14T08:19:46;84619.60;;;28.55;8.53
73974;BME280;62336;-26.094;27.994;2022-08-14T08:22:11;84619.55;;;28.23;8.49
73974;BME280;62336;-26.094;27.994;2022-08-14T08:24:36;84615.81;;;28.84;8.18
73974;BME280;62336;-26.094;27.994;2022-08-14T08:27:01;84614.46;;;28.59;8.66
73974;BME280;62336;-26.094;27.994;2022-08-14T08:29:26;84613.94;;;28.08;8.53
73974;BME280;62336;-26.094;27.994;2022-08-14T08:31:52;84609.34;;;27.93;8.64
73974;BME280;62336;-26.094;27.994;2022-08-14T08:34:16;84613.09;;;28.92;8.78
73974;BME280;62336;-26.094;27.994;2022-08-14T08:36:41;84610.80;;;28.76;8.26
73974;BME280;62336;-26.094;27.994;2022-08-14T08:39:06;84613.39;;;28.87;8.10
73974;BME280;62336;-26.094;27.994;2022-08-14T08:41:39;84606.94;;;28.33;8.13
73974;BME280;62336;-26.094;27.994;2022-08-14T08:44:03;84600.92;;;28.56;8.57
73974;BME280;62336;-26.094;27.994;2022-08-14T08:46:22;84602.10;;;28.87;8.38
73974;BME280;62336;-26.094;27.994;2022-08-14T08:48:48;84595.80;;;28.70;7.56
73974;BME280;62336;-26.094;27.994;2022-08-14T08:51:20;84604.54;;;28.99;7.92
73974;BME280;62336;-26.094;27.994;2022-08-14T08:53:37;84602.47;;;28.65;8.01
73974;BME280;62336;-26.094;27.994;2022-08-14T08:56:03;84602.39;;;29.48;7.79
73974;BME280;62336;-26.094;27.994;2022-08-14T08:58:28;84607.07;;;29.32;7.43
73974;BME280;62336;-26.094;27.994;2022-08-14T09:00:55;84604.05;;;29.48;7.61
73974;BME280;62336;-26.094;27.994;2022-08-14T09:03:20;84604.63;;;29.29;7.84
73974;BME280;62336;-26.094;27.994;2022-08-14T09:05:49;84595.16;;;28.64;7.35
73974;BME280;62336;-26.094;27.994;2022-08-14T09:08:13;84589.81;;;28.23;7.42
73974;BME280;62336;-26.094;27.994;2022-08-14T09:10:32;84588.94;;;28.47;7.71
73974;BME280;62336;-26.094;27.994;2022-08-14T09:12:58;84587.42;;;28.76;7.45
73974;BME280;62336;-26.094;27.994;2022-08-14T09:15:24;84578.57;;;28.24;8.37
73974;BME280;62336;-26.094;27.994;2022-08-14T09:17:48;84570.45;;;28.76;8.69
73974;BME280;62336;-26.094;27.994;2022-08-14T09:20:14;84568.33;;;29.15;7.80
73974;BME280;62336;-26.094;27.994;2022-08-14T09:22:39;84564.59;;;29.13;7.16
73974;BME280;62336;-26.094;27.994;2022-08-14T09:25:05;84558.67;;;29.29;7.14
73974;BME280;62336;-26.094;27.994;2022-08-14T09:27:29;84562.64;;;29.07;7.35
73974;BME280;62336;-26.094;27.994;2022-08-14T09:29:54;84564.25;;;29.17;7.06
73974;BME280;62336;-26.094;27.994;2022-08-14T09:32:27;84560.93;;;29.39;7.04
73974;BME280;62336;-26.094;27.994;2022-08-14T09:34:53;84561.88;;;29.21;7.28
73974;BME280;62336;-26.094;27.994;2022-08-14T09:37:19;84552.65;;;28.98;6.90
73974;BME280;62336;-26.094;27.994;2022-08-14T09:39:45;84551.75;;;28.78;7.36
73974;BME280;62336;-26.094;27.994;2022-08-14T09:42:10;84544.29;;;28.19;8.51
73974;BME280;62336;-26.094;27.994;2022-08-14T09:44:38;84540.35;;;28.42;7.33
73974;BME280;62336;-26.094;27.994;2022-08-14T09:46:53;84539.60;;;28.73;7.19
73974;BME280;62336;-26.094;27.994;2022-08-14T09:49:14;84531.34;;;29.39;6.96
73974;BME280;62336;-26.094;27.994;2022-08-14T09:51:41;84530.29;;;29.30;6.93
73974;BME280;62336;-26.094;27.994;2022-08-14T09:54:06;84525.88;;;29.76;7.83
73974;BME280;62336;-26.094;27.994;2022-08-14T09:56:29;84519.80;;;30.25;6.91
73974;BME280;62336;-26.094;27.994;2022-08-14T09:59:08;84510.01;;;29.46;7.03
73974;BME280;62336;-26.094;27.994;2022-08-14T10:01:20;84505.11;;;30.06;6.79
73974;BME280;62336;-26.094;27.994;2022-08-14T10:03:49;84508.06;;;30.38;7.06
73974;BME280;62336;-26.094;27.994;2022-08-14T10:06:11;84513.18;;;29.99;6.03
73974;BME280;62336;-26.094;27.994;2022-08-14T10:08:42;84507.26;;;30.37;6.23
73974;BME280;62336;-26.094;27.994;2022-08-14T10:10:59;84507.30;;;31.22;6.37
73974;BME280;62336;-26.094;27.994;2022-08-14T10:13:25;84505.80;;;30.98;5.09
73974;BME280;62336;-26.094;27.994;2022-08-14T10:15:50;84508.15;;;30.56;5.20
73974;BME280;62336;-26.094;27.994;2022-08-14T10:18:16;84502.61;;;30.18;5.55
73974;BME280;62336;-26.094;27.994;2022-08-14T10:20:41;84497.14;;;30.15;5.44
73974;BME280;62336;-26.094;27.994;2022-08-14T10:23:14;84491.31;;;30.30;5.27
73974;BME280;62336;-26.094;27.994;2022-08-14T10:25:39;84490.13;;;30.84;5.30
73974;BME280;62336;-26.094;27.994;2022-08-14T10:27:57;84486.32;;;30.04;5.66
73974;BME280;62336;-26.094;27.994;2022-08-14T10:30:20;84480.39;;;30.07;5.27
73974;BME280;62336;-26.094;27.994;2022-08-14T10:32:45;84471.43;;;30.10;5.01
73974;BME280;62336;-26.094;27.994;2022-08-14T10:35:13;84476.49;;;29.89;6.47
73974;BME280;62336;-26.094;27.994;2022-08-14T10:37:38;84465.68;;;30.96;5.46
73974;BME280;62336;-26.094;27.994;2022-08-14T10:40:02;84467.31;;;29.76;4.85
73974;BME280;62336;-26.094;27.994;2022-08-14T10:42:34;84463.64;;;29.75;4.07
73974;BME280;62336;-26.094;27.994;2022-08-14T10:44:50;84460.92;;;29.76;4.05
73974;BME280;62336;-26.094;27.994;2022-08-14T10:47:15;84450.75;;;30.07;4.62
73974;BME280;62336;-26.094;27.994;2022-08-14T10:49:43;84452.84;;;30.28;5.77
73974;BME280;62336;-26.094;27.994;2022-08-14T10:52:07;84449.64;;;29.97;5.32
73974;BME280;62336;-26.094;27.994;2022-08-14T10:54:33;84443.51;;;30.10;4.60
73974;BME280;62336;-26.094;27.994;2022-08-14T10:56:55;84445.55;;;30.98;3.77
73974;BME280;62336;-26.094;27.994;2022-08-14T10:59:21;84444.00;;;30.86;3.32
73974;BME280;62336;-26.094;27.994;2022-08-14T11:01:46;84442.50;;;29.80;2.61
73974;BME280;62336;-26.094;27.994;2022-08-14T11:04:19;84446.45;;;29.91;3.91
73974;BME280;62336;-26.094;27.994;2022-08-14T11:06:36;84446.09;;;29.70;4.17
73974;BME280;62336;-26.094;27.994;2022-08-14T11:09:10;84440.47;;;30.22;3.81
73974;BME280;62336;-26.094;27.994;2022-08-14T11:11:27;84444.03;;;29.44;3.88
73974;BME280;62336;-26.094;27.994;2022-08-14T11:13:54;84437.49;;;29.59;3.66
73974;BME280;62336;-26.094;27.994;2022-08-14T11:16:16;84439.27;;;29.24;4.46
73974;BME280;62336;-26.094;27.994;2022-08-14T11:18:45;84439.14;;;29.99;3.95
73974;BME280;62336;-26.094;27.994;2022-08-14T11:21:07;84428.89;;;30.35;3.30
73974;BME280;62336;-26.094;27.994;2022-08-14T11:23:34;84428.09;;;30.44;3.84
73974;BME280;62336;-26.094;27.994;2022-08-14T11:25:58;84422.90;;;31.10;3.72
73974;BME280;62336;-26.094;27.994;2022-08-14T11:28:24;84421.14;;;31.02;3.55
73974;BME280;62336;-26.094;27.994;2022-08-14T11:30:49;84423.74;;;30.72;3.51
73974;BME280;62336;-26.094;27.994;2022-08-14T11:33:12;84416.90;;;30.88;2.75
73974;BME280;62336;-26.094;27.994;2022-08-14T11:35:37;84423.90;;;31.21;2.32
73974;BME280;62336;-26.094;27.994;2022-08-14T11:38:03;84439.93;;;31.39;2.27
73974;BME280;62336;-26.094;27.994;2022-08-14T11:40:30;84434.66;;;31.63;2.04
73974;BME280;62336;-26.094;27.994;2022-08-14T11:42:54;84431.10;;;31.37;1.98
73974;BME280;62336;-26.094;27.994;2022-08-14T11:45:18;84424.25;;;31.49;2.66
73974;BME280;62336;-26.094;27.994;2022-08-14T11:47:44;84432.27;;;31.32;2.47
73974;BME280;62336;-26.094;27.994;2022-08-14T11:50:15;84430.39;;;31.61;2.44
73974;BME280;62336;-26.094;27.994;2022-08-14T11:52:34;84430.51;;;30.57;2.10
73974;BME280;62336;-26.094;27.994;2022-08-14T11:54:58;84425.55;;;30.38;2.88
73974;BME280;62336;-26.094;27.994;2022-08-14T11:57:23;84425.62;;;30.80;2.55
73974;BME280;62336;-26.094;27.994;2022-08-14T11:59:48;84426.90;;;31.02;2.83
73974;BME280;62336;-26.094;27.994;2022-08-14T12:02:15;84433.54;;;31.11;1.60
73974;BME280;62336;-26.094;27.994;2022-08-14T12:04:48;84431.16;;;29.82;2.45
73974;BME280;62336;-26.094;27.994;2022-08-14T12:07:06;84425.72;;;29.95;2.33
73974;BME280;62336;-26.094;27.994;2022-08-14T12:09:30;84440.35;;;30.60;2.93
73974;BME280;62336;-26.094;27.994;2022-08-14T12:11:53;84428.00;;;30.27;2.11
73974;BME280;62336;-26.094;27.994;2022-08-14T12:14:18;84431.12;;;30.27;2.41
73974;BME280;62336;-26.094;27.994;2022-08-14T12:16:43;84430.81;;;29.37;3.01
73974;BME280;62336;-26.094;27.994;2022-08-14T12:19:08;84426.31;;;30.54;2.43
73974;BME280;62336;-26.094;27.994;2022-08-14T12:21:33;84420.27;;;29.83;2.11
73974;BME280;62336;-26.094;27.994;2022-08-14T12:24:04;84430.04;;;29.71;2.71
73974;BME280;62336;-26.094;27.994;2022-08-14T12:26:24;84435.83;;;29.96;2.86
73974;BME280;62336;-26.094;27.994;2022-08-14T12:28:49;84439.47;;;30.43;2.99
73974;BME280;62336;-26.094;27.994;2022-08-14T12:31:15;84429.13;;;30.41;2.34
73974;BME280;62336;-26.094;27.994;2022-08-14T12:33:38;84430.30;;;30.97;2.78
73974;BME280;62336;-26.094;27.994;2022-08-14T12:36:07;84442.45;;;30.97;3.21